createdAt,value
2022-09-02T00:01:35.782Z,99695.56
2022-09-02T00:11:09.877Z,99688.44
2022-09-02T00:20:45.378Z,99683.63
2022-09-02T00:30:19.614Z,99684.88
2022-09-02T00:39:51.761Z,99673.30
2022-09-02T00:49:26.965Z,99677.09
2022-09-02T00:58:59.760Z,99667.58
2022-09-02T01:08:35.693Z,99663.38
2022-09-02T01:18:09.857Z,99658.98
2022-09-02T01:27:42.925Z,99661.70
2022-09-02T01:37:14.857Z,99667.23
2022-09-02T01:46:48.395Z,99657.60
2022-09-02T01:56:24.031Z,99651.04
2022-09-02T02:05:57.836Z,99648.57
2022-09-02T02:25:04.130Z,99654.37
2022-09-02T02:34:39.251Z,99653.30
2022-09-02T02:44:12.811Z,99643.28
2022-09-02T02:53:47.293Z,99646.86
2022-09-02T03:03:21.618Z,99642.58
2022-09-02T03:12:54.256Z,99640.17
2022-09-02T03:22:29.455Z,99633.36
2022-09-02T03:32:04.240Z,99634.97
2022-09-02T03:41:36.260Z,99633.91
2022-09-02T03:51:11.884Z,99629.17
2022-09-02T04:00:44.203Z,99620.63
2022-09-02T04:10:19.059Z,99627.11
2022-09-02T04:19:51.404Z,99621.08
2022-09-02T04:20:53.912Z,99625.97
2022-09-02T04:30:28.914Z,99624.98
2022-09-02T04:40:01.407Z,99617.78
2022-09-02T04:49:34.999Z,99626.33
2022-09-02T04:59:10.667Z,99636.80
2022-09-02T05:08:44.670Z,99638.63
2022-09-02T05:18:17.100Z,99637.60
2022-09-02T05:27:53.086Z,99639.20
2022-09-02T05:37:27.427Z,99647.89
2022-09-02T05:47:01.560Z,99647.89
2022-09-02T05:56:33.748Z,99642.93
2022-09-02T06:06:09.326Z,99643.61
2022-09-02T06:15:42.261Z,99637.16
2022-09-02T06:25:16.038Z,99637.84
2022-09-02T06:34:50.642Z,99642.16
2022-09-02T06:44:24.844Z,99634.10
2022-09-02T06:53:59.763Z,99628.09
2022-09-02T07:03:34.751Z,99628.19
2022-09-02T07:13:10.163Z,99624.52
2022-09-02T07:22:44.867Z,99627.84
2022-09-02T07:32:19.729Z,99630.66
2022-09-02T07:41:54.152Z,99626.28
2022-09-02T07:43:59.635Z,99627.34
2022-09-02T07:45:03.185Z,99628.55
2022-09-02T07:46:05.623Z,99628.58
2022-09-02T07:47:08.077Z,99624.22
2022-09-02T07:48:10.551Z,99627.74
2022-09-02T07:49:12.897Z,99624.45
2022-09-02T07:50:18.725Z,99621.99
2022-09-02T07:51:17.946Z,99622.63
2022-09-02T07:52:21.976Z,99631.09
2022-09-02T07:53:24.407Z,99625.84
2022-09-02T07:54:26.928Z,99624.74
2022-09-02T07:55:29.278Z,99626.09
2022-09-02T07:56:31.715Z,99623.56
2022-09-02T08:06:04.708Z,99625.63
2022-09-02T08:07:07.261Z,99621.91
2022-09-02T08:16:41.525Z,99623.35
2022-09-02T08:17:44.000Z,99622.42
2022-09-02T08:18:46.463Z,99627.62
2022-09-02T08:19:50.642Z,99630.44
2022-09-02T08:20:52.975Z,99626.58
2022-09-02T08:21:55.458Z,99638.41
2022-09-02T08:23:05.671Z,99627.77
2022-09-02T08:24:01.905Z,99627.58
2022-09-02T08:25:05.971Z,99629.45
2022-09-02T08:26:08.335Z,99626.67
2022-09-02T08:27:10.837Z,99630.54
2022-09-02T08:28:13.359Z,99627.59
2022-09-02T08:29:15.788Z,99623.77
2022-09-02T08:30:18.216Z,99625.65
2022-09-02T08:31:20.865Z,99624.93
2022-09-02T08:32:25.331Z,99626.29
2022-09-02T08:33:27.726Z,99620.06
2022-09-02T08:34:30.194Z,99623.73
2022-09-02T08:35:34.281Z,99624.27
2022-09-02T08:36:37.244Z,99632.52
2022-09-02T08:37:41.147Z,99626.95
2022-09-02T08:38:43.510Z,99628.48
2022-09-02T08:39:45.942Z,99626.75
2022-09-02T08:40:50.073Z,99628.82
2022-09-02T08:41:54.118Z,99628.14
2022-09-02T08:42:56.357Z,99628.58
2022-09-02T08:43:58.785Z,99627.13
2022-09-02T08:45:01.288Z,99624.39
2022-09-02T08:54:34.056Z,99620.05
2022-09-02T08:55:38.210Z,99620.09
2022-09-02T08:56:40.600Z,99619.54
2022-09-02T08:57:43.498Z,99621.63
2022-09-02T08:58:47.165Z,99622.00
2022-09-02T08:59:49.552Z,99620.70
2022-09-02T09:00:52.124Z,99623.47
2022-09-02T09:01:54.552Z,99621.88
2022-09-02T09:02:58.587Z,99612.08
2022-09-02T09:04:01.003Z,99621.56
2022-09-02T09:05:03.504Z,99617.72
2022-09-02T09:06:06.061Z,99624.50
2022-09-02T09:07:08.508Z,99613.54
2022-09-02T09:08:12.417Z,99615.56
2022-09-02T09:09:13.499Z,99616.08
2022-09-02T09:10:15.986Z,99617.61
2022-09-02T09:11:18.436Z,99616.30
2022-09-02T09:12:20.952Z,99615.17
2022-09-02T09:13:23.458Z,99613.76
2022-09-02T09:14:25.983Z,99616.67
2022-09-02T09:15:28.557Z,99616.66
2022-09-02T09:16:31.142Z,99613.93
2022-09-02T09:17:33.575Z,99615.48
2022-09-02T09:18:36.124Z,99615.83
2022-09-02T09:19:38.638Z,99612.88
2022-09-02T09:20:41.407Z,99612.17
2022-09-02T09:21:43.593Z,99607.72
2022-09-02T09:22:45.996Z,99600.94
2022-09-02T09:23:48.612Z,99602.91
2022-09-02T09:24:51.118Z,99596.68
2022-09-02T09:25:53.577Z,99600.22
2022-09-02T09:26:56.072Z,99599.67
2022-09-02T09:27:58.555Z,99596.72
2022-09-02T09:29:01.010Z,99594.84
2022-09-02T09:30:04.432Z,99594.59
2022-09-02T09:31:06.869Z,99594.03
2022-09-02T09:32:09.334Z,99590.30
2022-09-02T09:33:11.842Z,99590.17
2022-09-02T09:34:16.020Z,99595.30
2022-09-02T09:35:18.521Z,99592.61
2022-09-02T09:36:21.003Z,99583.08
2022-09-02T09:37:23.491Z,99584.42
2022-09-02T09:38:25.971Z,99585.75
2022-09-02T09:39:30.031Z,99589.30
2022-09-02T09:40:32.627Z,99585.77
2022-09-02T09:41:35.123Z,99587.91
2022-09-02T09:42:39.230Z,99587.78
2022-09-02T09:43:41.607Z,99590.13
2022-09-02T09:44:44.020Z,99590.19
2022-09-02T09:45:46.531Z,99587.56
2022-09-02T09:46:48.965Z,99580.77
2022-09-02T09:47:52.442Z,99583.28
2022-09-02T09:48:53.936Z,99589.55
2022-09-02T09:49:56.581Z,99581.00
2022-09-02T09:50:58.989Z,99581.04
2022-09-02T09:52:01.530Z,99581.11
2022-09-02T09:53:04.036Z,99579.34
2022-09-02T09:54:06.574Z,99572.48
2022-09-02T09:55:10.734Z,99579.00
2022-09-02T09:56:11.644Z,99573.38
2022-09-02T09:57:15.756Z,99572.48
2022-09-02T09:58:18.078Z,99570.46
2022-09-02T09:59:20.637Z,99575.89
2022-09-02T10:00:23.057Z,99567.70
2022-09-02T10:01:25.572Z,99563.27
2022-09-02T10:02:28.320Z,99561.31
2022-09-02T10:03:32.883Z,99556.80
2022-09-02T10:04:42.670Z,99565.03
2022-09-02T10:05:35.618Z,99561.81
2022-09-02T10:06:39.628Z,99563.05
2022-09-02T10:07:45.117Z,99561.11
2022-09-02T10:08:45.945Z,99561.83
2022-09-02T10:09:48.418Z,99558.97
2022-09-02T10:10:50.932Z,99562.35
2022-09-02T10:11:55.040Z,99561.34
2022-09-02T10:12:58.977Z,99559.05
2022-09-02T10:14:03.003Z,99559.95
2022-09-02T10:15:05.404Z,99551.41
2022-09-02T10:16:07.959Z,99556.31
2022-09-02T10:17:10.413Z,99557.63
2022-09-02T10:18:14.641Z,99548.98
2022-09-02T10:19:16.893Z,99557.99
2022-09-02T10:20:19.402Z,99553.55
2022-09-02T10:21:21.883Z,99551.23
2022-09-02T10:22:27.829Z,99552.78
2022-09-02T10:23:28.276Z,99546.84
2022-09-02T10:24:32.364Z,99543.86
2022-09-02T10:34:03.493Z,99545.01
2022-09-02T10:35:07.673Z,99553.77
2022-09-02T10:36:15.489Z,99543.16
2022-09-02T10:37:14.040Z,99547.11
2022-09-02T10:38:16.632Z,99545.71
2022-09-02T10:39:19.067Z,99547.77
2022-09-02T10:48:53.368Z,99535.16
2022-09-02T10:49:57.488Z,99533.90
2022-09-02T10:50:59.893Z,99528.18
2022-09-02T10:52:02.383Z,99529.20
2022-09-02T10:53:06.000Z,99531.61
2022-09-02T10:54:07.401Z,99526.95
2022-09-02T10:55:11.462Z,99524.52
2022-09-02T10:56:13.815Z,99527.47
2022-09-02T10:57:16.287Z,99527.32
2022-09-02T10:58:20.356Z,99525.16
2022-09-02T10:59:22.662Z,99525.51
2022-09-02T11:00:25.184Z,99518.73
2022-09-02T11:01:29.264Z,99518.92
2022-09-02T11:02:31.569Z,99514.48
2022-09-02T11:03:34.139Z,99518.25
2022-09-02T11:04:38.181Z,99514.30
2022-09-02T11:05:42.101Z,99523.89
2022-09-02T11:07:02.780Z,99523.98
2022-09-02T11:07:48.528Z,99511.90
2022-09-02T11:08:50.960Z,99511.63
2022-09-02T11:09:53.403Z,99518.26
2022-09-02T11:10:55.894Z,99516.20
2022-09-02T11:12:00.221Z,99515.25
2022-09-02T11:13:01.805Z,99518.08
2022-09-02T11:14:05.913Z,99511.11
2022-09-02T11:15:08.257Z,99506.73
2022-09-02T11:16:10.946Z,99499.45
2022-09-02T11:17:13.675Z,99506.41
2022-09-02T11:18:15.862Z,99499.72
2022-09-02T11:19:19.909Z,99495.36
2022-09-02T11:20:23.757Z,99493.20
2022-09-02T11:21:26.121Z,99489.42
2022-09-02T11:22:30.206Z,99492.17
2022-09-02T11:23:32.623Z,99485.48
2022-09-02T11:24:35.065Z,99493.53
2022-09-02T11:25:39.102Z,99492.94
2022-09-02T11:26:43.046Z,99495.33
2022-09-02T11:27:45.713Z,99487.95
2022-09-02T11:28:49.746Z,99489.19
2022-09-02T11:29:52.067Z,99487.35
2022-09-02T11:30:54.560Z,99486.36
2022-09-02T11:31:57.198Z,99485.73
2022-09-02T11:32:59.673Z,99487.20
2022-09-02T11:35:04.664Z,99479.80
2022-09-02T11:36:07.149Z,99490.69
2022-09-02T11:37:10.668Z,99485.42
2022-09-02T11:38:12.482Z,99486.96
2022-09-02T11:39:21.868Z,99489.05
2022-09-02T11:40:33.550Z,99486.36
2022-09-02T11:42:22.356Z,99486.45
2022-09-02T11:43:24.831Z,99482.14
2022-09-02T11:44:28.208Z,99477.16
2022-09-02T11:45:30.089Z,99481.97
2022-09-02T11:46:32.503Z,99483.76
2022-09-02T11:47:34.865Z,99483.67
2022-09-02T11:48:39.043Z,99477.08
2022-09-02T11:49:41.387Z,99475.35
2022-09-02T11:50:43.946Z,99477.14
2022-09-02T11:51:46.593Z,99486.64
2022-09-02T11:52:50.705Z,99484.73
2022-09-02T11:53:53.390Z,99484.13
2022-09-02T11:54:58.398Z,99478.03
2022-09-02T11:56:02.063Z,99476.20
2022-09-02T11:57:05.864Z,99474.62
2022-09-02T11:58:09.808Z,99471.08
2022-09-02T11:59:12.123Z,99474.05
2022-09-02T12:00:14.597Z,99477.08
2022-09-02T12:01:17.898Z,99477.16
2022-09-02T12:02:21.212Z,99474.81
2022-09-02T12:03:39.091Z,99474.45
2022-09-02T12:05:28.684Z,99474.09
2022-09-02T12:06:31.265Z,99473.50
2022-09-02T12:07:35.275Z,99478.47
2022-09-02T12:08:37.617Z,99477.72
2022-09-02T12:09:40.096Z,99474.18
2022-09-02T12:10:42.560Z,99474.36
2022-09-02T12:11:46.656Z,99468.13
2022-09-02T12:12:51.934Z,99461.33
2022-09-02T12:13:53.141Z,99470.59
2022-09-02T12:14:55.556Z,99469.97
2022-09-02T12:15:59.763Z,99469.88
2022-09-02T12:17:03.899Z,99469.25
2022-09-02T12:18:06.228Z,99473.95
2022-09-02T12:19:10.315Z,99468.40
2022-09-02T12:20:12.714Z,99471.90
2022-09-02T12:21:16.113Z,99468.93
2022-09-02T12:22:17.821Z,99466.70
2022-09-02T12:23:21.923Z,99466.23
2022-09-02T12:24:26.377Z,99462.27
2022-09-02T12:25:28.383Z,99456.93
2022-09-02T12:26:30.838Z,99460.31
2022-09-02T12:27:34.907Z,99463.78
2022-09-02T12:28:37.265Z,99457.79
2022-09-02T12:29:39.966Z,99453.32
2022-09-02T12:30:43.946Z,99456.58
2022-09-02T12:31:46.523Z,99453.11
2022-09-02T12:32:50.578Z,99451.66
2022-09-02T12:33:52.972Z,99448.53
2022-09-02T12:34:55.430Z,99449.83
2022-09-02T12:35:57.973Z,99454.91
2022-09-02T12:37:00.625Z,99455.68
2022-09-02T12:38:03.030Z,99449.11
2022-09-02T12:39:08.043Z,99448.76
2022-09-02T12:40:13.020Z,99451.36
2022-09-02T12:41:12.860Z,99443.02
2022-09-02T12:42:14.527Z,99457.72
2022-09-02T12:43:18.670Z,99441.93
2022-09-02T12:44:21.019Z,99437.28
2022-09-02T12:45:28.799Z,99432.55
2022-09-02T12:46:27.726Z,99435.95
2022-09-02T12:47:30.108Z,99434.23
2022-09-02T12:48:37.962Z,99431.00
2022-09-02T12:49:36.979Z,99429.63
2022-09-02T12:50:39.363Z,99428.98
2022-09-02T12:51:41.862Z,99431.73
2022-09-02T12:52:44.343Z,99435.65
2022-09-02T12:53:46.867Z,99430.88
2022-09-02T12:54:49.345Z,99434.09
2022-09-02T12:55:53.500Z,99432.55
2022-09-02T12:56:55.823Z,99424.64
2022-09-02T12:57:58.347Z,99427.52
2022-09-02T12:59:02.804Z,99425.45
2022-09-02T13:08:34.353Z,99417.58
2022-09-02T13:09:36.999Z,99418.36
2022-09-02T13:10:39.507Z,99414.47
2022-09-02T13:11:41.992Z,99412.45
2022-09-02T13:12:44.538Z,99412.73
2022-09-02T13:13:47.045Z,99416.50
2022-09-02T13:14:51.159Z,99419.44
2022-09-02T13:15:55.201Z,99414.59
2022-09-02T13:17:01.931Z,99416.30
2022-09-02T13:18:01.571Z,99417.52
2022-09-02T13:19:04.072Z,99410.63
2022-09-02T13:20:08.111Z,99410.60
2022-09-02T13:21:10.567Z,99414.36
2022-09-02T13:22:14.703Z,99408.27
2022-09-02T13:23:17.130Z,99404.94
2022-09-02T13:24:19.603Z,99410.64
2022-09-02T13:25:23.734Z,99412.69
2022-09-02T13:26:45.785Z,99412.30
2022-09-02T13:27:28.609Z,99402.88
2022-09-02T13:28:31.558Z,99397.70
2022-09-02T13:29:34.214Z,99396.30
2022-09-02T13:30:38.074Z,99393.05
2022-09-02T13:31:40.869Z,99403.32
2022-09-02T13:32:43.221Z,99377.88
2022-09-02T13:33:45.727Z,99389.02
2022-09-02T13:34:48.318Z,99390.44
2022-09-02T13:35:52.570Z,99381.93
2022-09-02T13:36:54.877Z,99380.86
2022-09-02T13:37:57.448Z,99378.63
2022-09-02T13:38:59.929Z,99376.06
2022-09-02T13:40:02.650Z,99367.41
2022-09-02T13:41:06.652Z,99378.80
2022-09-02T13:42:09.111Z,99369.52
2022-09-02T13:43:11.644Z,99369.31
2022-09-02T13:44:14.253Z,99375.22
2022-09-02T13:45:19.778Z,99370.19
2022-09-02T13:46:22.257Z,99367.31
2022-09-02T13:47:24.561Z,99368.16
2022-09-02T13:48:27.067Z,99372.14
2022-09-02T13:49:32.709Z,99374.91
2022-09-02T13:50:32.650Z,99376.38
2022-09-02T13:51:35.208Z,99380.20
2022-09-02T13:53:19.904Z,99380.12
2022-09-02T13:54:05.418Z,99378.33
2022-09-02T13:54:42.683Z,99375.65
2022-09-02T13:55:45.167Z,99366.83
2022-09-02T13:56:47.703Z,99374.01
2022-09-02T13:57:51.874Z,99375.55
2022-09-02T13:58:54.356Z,99370.33
2022-09-02T13:59:56.871Z,99358.39
2022-09-02T14:01:02.196Z,99362.78
2022-09-02T14:02:02.046Z,99357.02
2022-09-02T14:03:06.081Z,99357.43
2022-09-02T14:04:10.259Z,99355.65
2022-09-02T14:05:13.949Z,99357.88
2022-09-02T14:06:16.491Z,99355.34
2022-09-02T14:07:19.056Z,99359.09
2022-09-02T14:08:23.255Z,99361.16
2022-09-02T14:09:25.610Z,99355.97
2022-09-02T14:10:28.079Z,99356.64
2022-09-02T14:11:30.549Z,99357.09
2022-09-02T14:12:33.176Z,99350.85
2022-09-02T14:13:35.808Z,99356.29
2022-09-02T14:14:38.329Z,99354.14
2022-09-02T14:15:41.022Z,99356.42
2022-09-02T14:16:43.678Z,99350.34
2022-09-02T14:17:46.204Z,99343.43
2022-09-02T14:18:50.228Z,99340.62
2022-09-02T14:19:52.676Z,99345.04
2022-09-02T14:20:56.743Z,99344.99
2022-09-02T14:21:59.363Z,99340.91
2022-09-02T14:23:01.760Z,99337.92
2022-09-02T14:24:04.211Z,99333.86
2022-09-02T14:25:06.663Z,99335.07
2022-09-02T14:26:09.219Z,99327.73
2022-09-02T14:27:11.677Z,99324.89
2022-09-02T14:28:14.290Z,99328.16
2022-09-02T14:29:18.333Z,99316.41
2022-09-02T14:30:22.202Z,99318.19
2022-09-02T14:31:26.278Z,99308.19
2022-09-02T14:32:28.591Z,99303.38
2022-09-02T14:33:32.819Z,99300.39
2022-09-02T14:34:36.935Z,99300.47
2022-09-02T14:35:39.532Z,99307.14
2022-09-02T14:36:43.757Z,99302.73
2022-09-02T14:37:47.599Z,99299.89
2022-09-02T14:38:51.533Z,99303.33
2022-09-02T14:39:53.952Z,99302.03
2022-09-02T14:40:56.350Z,99299.45
2022-09-02T14:41:58.888Z,99296.88
2022-09-02T14:43:01.490Z,99286.00
2022-09-02T14:44:04.099Z,99293.31
2022-09-02T14:45:08.187Z,99299.09
2022-09-02T14:46:10.580Z,99292.50
2022-09-02T14:47:14.076Z,99297.18
2022-09-02T14:48:16.609Z,99291.98
2022-09-02T14:49:19.068Z,99295.72
2022-09-02T14:50:21.603Z,99294.91
2022-09-02T14:51:25.702Z,99292.30
2022-09-02T14:52:29.792Z,99302.73
2022-09-02T14:53:33.774Z,99297.02
2022-09-02T14:54:36.179Z,99297.73
2022-09-02T14:55:38.692Z,99298.03
2022-09-02T14:56:41.262Z,99292.16
2022-09-02T14:57:43.782Z,99292.94
2022-09-02T14:58:46.297Z,99289.95
2022-09-02T14:59:48.790Z,99282.45
2022-09-02T15:00:52.816Z,99279.85
2022-09-02T15:01:55.273Z,99280.98
2022-09-02T15:02:57.905Z,99280.32
2022-09-02T15:04:00.424Z,99290.42
2022-09-02T15:05:04.642Z,99282.48
2022-09-02T15:06:06.964Z,99285.83
2022-09-02T15:07:09.452Z,99285.84
2022-09-02T15:08:11.929Z,99284.13
2022-09-02T15:09:16.443Z,99279.56
2022-09-02T15:10:18.382Z,99277.65
2022-09-02T15:11:20.894Z,99275.42
2022-09-02T15:12:23.378Z,99275.67
2022-09-02T15:13:27.544Z,99274.42
2022-09-02T15:14:30.401Z,99274.99
2022-09-02T15:15:32.889Z,99268.95
2022-09-02T15:16:36.989Z,99270.56
2022-09-02T15:17:40.914Z,99271.11
2022-09-02T15:18:43.391Z,99272.13
2022-09-02T15:19:47.526Z,99270.33
2022-09-02T15:20:51.490Z,99267.71
2022-09-02T15:21:53.894Z,99269.44
2022-09-02T15:22:56.333Z,99262.80
2022-09-02T15:23:58.900Z,99266.22
2022-09-02T15:25:01.490Z,99265.00
2022-09-02T15:26:04.121Z,99268.38
2022-09-02T15:27:06.760Z,99261.08
2022-09-02T15:28:09.381Z,99268.83
2022-09-02T15:29:11.888Z,99264.58
2022-09-02T15:30:14.686Z,99267.36
2022-09-02T15:31:17.519Z,99268.30
2022-09-02T15:32:21.083Z,99264.98
2022-09-02T15:33:23.689Z,99266.32
2022-09-02T15:34:26.219Z,99269.86
2022-09-02T15:35:28.856Z,99261.57
2022-09-02T15:36:31.430Z,99268.51
2022-09-02T15:37:33.988Z,99265.55
2022-09-02T15:38:38.202Z,99266.98
2022-09-02T15:39:40.875Z,99268.88
2022-09-02T15:40:43.461Z,99267.69
2022-09-02T15:41:46.039Z,99266.35
2022-09-02T15:42:48.695Z,99265.34
2022-09-02T15:43:51.352Z,99264.11
2022-09-02T15:44:55.591Z,99266.23
2022-09-02T15:45:58.130Z,99263.91
2022-09-02T15:47:02.237Z,99262.31
2022-09-02T15:48:06.336Z,99263.42
2022-09-02T15:49:08.782Z,99268.30
2022-09-02T15:50:11.406Z,99269.77
2022-09-02T15:51:14.168Z,99266.88
2022-09-02T15:52:16.542Z,99268.09
2022-09-02T15:53:19.238Z,99268.41
2022-09-02T15:54:21.780Z,99265.80
2022-09-02T15:55:29.106Z,99266.67
2022-09-02T15:56:27.055Z,99262.92
2022-09-02T15:57:29.537Z,99258.31
2022-09-02T15:58:32.073Z,99258.48
2022-09-02T15:59:34.554Z,99260.59
2022-09-02T16:00:38.697Z,99258.10
2022-09-02T16:01:41.154Z,99255.07
2022-09-02T16:02:43.634Z,99252.56
2022-09-02T16:03:47.609Z,99254.02
2022-09-02T16:04:51.989Z,99249.17
2022-09-02T16:05:54.355Z,99249.72
2022-09-02T16:06:58.488Z,99248.05
2022-09-02T16:08:02.053Z,99242.71
2022-09-02T16:09:05.987Z,99245.09
2022-09-02T16:10:08.403Z,99240.85
2022-09-02T16:11:11.199Z,99261.92
2022-09-02T16:12:15.307Z,99245.52
2022-09-02T16:13:19.259Z,99246.13
2022-09-02T16:14:23.418Z,99252.03
2022-09-02T16:15:25.869Z,99250.30
2022-09-02T16:16:28.429Z,99249.95
2022-09-02T16:17:30.917Z,99251.69
2022-09-02T16:18:33.421Z,99246.94
2022-09-02T16:19:35.954Z,99249.13
2022-09-02T16:20:38.501Z,99249.27
2022-09-02T16:21:41.013Z,99247.55
2022-09-02T16:22:43.531Z,99248.23
2022-09-02T16:23:46.099Z,99260.05
2022-09-02T16:24:48.612Z,99253.29
2022-09-02T16:25:51.069Z,99242.45
2022-09-02T16:26:55.186Z,99248.22
2022-09-02T16:27:58.661Z,99247.91
2022-09-02T16:29:01.101Z,99247.04
2022-09-02T16:30:05.211Z,99247.91
2022-09-02T16:31:07.738Z,99249.95
2022-09-02T16:32:26.880Z,99252.45
2022-09-02T16:33:12.653Z,99237.70
2022-09-02T16:34:15.308Z,99249.16
2022-09-02T16:35:18.861Z,99246.84
2022-09-02T16:36:21.239Z,99248.53
2022-09-02T16:37:23.681Z,99248.36
2022-09-02T16:38:26.170Z,99242.96
2022-09-02T16:39:28.651Z,99248.00
2022-09-02T16:40:31.143Z,99250.02
2022-09-02T16:41:33.619Z,99252.08
2022-09-02T16:42:38.331Z,99247.16
2022-09-02T16:43:41.672Z,99243.06
2022-09-02T16:44:44.020Z,99244.72
2022-09-02T16:45:46.613Z,99240.22
2022-09-02T16:46:48.961Z,99246.52
2022-09-02T16:47:52.846Z,99245.23
2022-09-02T16:48:55.341Z,99244.50
2022-09-02T16:49:57.838Z,99241.94
2022-09-02T16:51:02.008Z,99246.11
2022-09-02T16:52:04.297Z,99242.33
2022-09-02T16:53:06.807Z,99240.95
2022-09-02T16:54:09.307Z,99244.25
2022-09-02T16:55:13.381Z,99245.34
2022-09-02T16:56:15.696Z,99243.84
2022-09-02T16:57:18.180Z,99243.49
2022-09-02T16:58:22.269Z,99247.18
2022-09-02T16:59:24.661Z,99242.35
2022-09-02T17:00:28.798Z,99244.81
2022-09-02T17:01:32.467Z,99240.67
2022-09-02T17:02:33.721Z,99239.28
2022-09-02T17:03:36.149Z,99239.72
2022-09-02T17:04:38.661Z,99240.30
2022-09-02T17:05:41.244Z,99236.95
2022-09-02T17:06:43.706Z,99240.19
2022-09-02T17:07:46.177Z,99234.11
2022-09-02T17:08:48.734Z,99236.80
2022-09-02T17:09:51.265Z,99236.57
2022-09-02T17:10:53.692Z,99241.22
2022-09-02T17:11:56.159Z,99237.92
2022-09-02T17:12:58.645Z,99239.64
2022-09-02T17:14:01.125Z,99242.60
2022-09-02T17:15:03.602Z,99242.66
2022-09-02T17:16:06.106Z,99245.09
2022-09-02T17:17:08.653Z,99240.23
2022-09-02T17:18:11.116Z,99236.61
2022-09-02T17:19:13.687Z,99239.59
2022-09-02T17:20:16.085Z,99241.45
2022-09-02T17:21:20.157Z,99238.67
2022-09-02T17:22:24.050Z,99237.30
2022-09-02T17:23:27.955Z,99238.31
2022-09-02T17:24:30.274Z,99234.05
2022-09-02T17:25:32.733Z,99235.77
2022-09-02T17:26:35.194Z,99233.44
2022-09-02T17:27:37.641Z,99234.41
2022-09-02T17:28:41.713Z,99227.05
2022-09-02T17:29:49.471Z,99230.16
2022-09-02T17:30:46.634Z,99226.45
2022-09-02T17:31:49.029Z,99233.67
2022-09-02T17:32:56.478Z,99226.63
2022-09-02T17:33:57.114Z,99229.28
2022-09-02T17:34:59.422Z,99232.31
2022-09-02T17:36:01.874Z,99230.30
2022-09-02T17:37:04.423Z,99222.12
2022-09-02T17:38:06.903Z,99229.66
2022-09-02T17:39:09.471Z,99223.39
2022-09-02T17:40:11.878Z,99226.52
2022-09-02T17:41:14.410Z,99225.28
2022-09-02T17:42:16.890Z,99220.08
2022-09-02T17:43:20.964Z,99220.95
2022-09-02T17:44:23.303Z,99223.65
2022-09-02T17:45:26.387Z,99227.36
2022-09-02T17:46:28.883Z,99223.19
2022-09-02T17:47:32.048Z,99219.93
2022-09-02T17:48:39.212Z,99218.23
2022-09-02T17:49:37.111Z,99219.01
2022-09-02T17:50:39.622Z,99220.20
2022-09-02T17:51:43.709Z,99217.59
2022-09-02T17:52:47.614Z,99214.17
2022-09-02T17:53:49.930Z,99218.03
2022-09-02T17:54:52.538Z,99220.77
2022-09-02T17:55:54.919Z,99211.72
2022-09-02T17:56:58.973Z,99218.63
2022-09-02T17:58:03.032Z,99217.45
2022-09-02T17:59:05.226Z,99212.66
2022-09-02T18:00:09.294Z,99208.30
2022-09-02T18:01:13.483Z,99206.18
2022-09-02T18:02:15.939Z,99209.88
2022-09-02T18:03:22.122Z,99207.91
2022-09-02T18:04:22.403Z,99205.23
2022-09-02T18:13:54.505Z,99211.05
2022-09-02T18:14:54.741Z,99212.06
2022-09-02T18:15:57.411Z,99213.09
2022-09-02T18:25:29.777Z,99216.48
2022-09-02T18:26:32.284Z,99213.41
2022-09-02T18:27:34.704Z,99221.36
2022-09-02T18:37:07.142Z,99223.92
2022-09-02T18:38:09.701Z,99224.52
2022-09-02T18:39:13.724Z,99222.73
2022-09-02T18:48:46.112Z,99227.98
2022-09-02T18:58:18.172Z,99223.36
2022-09-02T19:07:49.776Z,99228.30
2022-09-02T19:17:23.982Z,99233.70
2022-09-02T19:26:57.886Z,99232.44
2022-09-02T19:36:33.501Z,99238.24
2022-09-02T19:46:06.018Z,99243.44
2022-09-02T19:55:39.776Z,99242.55
2022-09-02T20:05:15.038Z,99249.20
2022-09-02T20:14:46.671Z,99254.30
2022-09-02T20:24:20.828Z,99247.91
2022-09-02T20:33:54.825Z,99246.72
2022-09-02T20:43:29.203Z,99249.97
2022-09-02T20:53:03.031Z,99252.75
2022-09-02T21:02:37.702Z,99242.18
2022-09-02T21:12:11.740Z,99232.97
2022-09-02T21:21:47.653Z,99228.61
2022-09-02T21:31:21.292Z,99226.32
2022-09-02T21:40:53.664Z,99228.87
2022-09-02T21:50:27.625Z,99230.92
2022-09-02T22:00:01.572Z,99221.77
2022-09-02T22:09:37.459Z,99220.53
2022-09-02T22:19:11.611Z,99216.92
2022-09-02T22:28:43.995Z,99207.11
2022-09-02T22:38:17.973Z,99202.91
2022-09-02T22:47:53.460Z,99212.58
2022-09-02T22:57:25.933Z,99204.23
2022-09-02T23:06:59.750Z,99202.97
2022-09-02T23:16:35.325Z,99210.36
2022-09-02T23:26:07.322Z,99205.63
2022-09-02T23:35:41.396Z,99203.37
2022-09-02T23:45:15.959Z,99200.00
2022-09-02T23:54:50.564Z,99200.08
